createdAt,value
2023-02-19T00:01:46.791Z,15.45
2023-02-19T00:04:16.714Z,16.25
2023-02-19T00:06:45.242Z,14.63
2023-02-19T00:09:14.871Z,14.05
2023-02-19T00:11:42.756Z,18.58
2023-02-19T00:14:11.149Z,15.95
2023-02-19T00:16:40.096Z,14.85
2023-02-19T00:19:11.905Z,14.63
2023-02-19T00:21:39.337Z,13.20
2023-02-19T00:24:07.877Z,14.70
2023-02-19T00:26:35.716Z,13.60
2023-02-19T00:29:03.154Z,15.18
2023-02-19T00:31:33.190Z,14.20
2023-02-19T00:34:03.990Z,13.85
2023-02-19T00:36:33.925Z,12.30
2023-02-19T00:39:01.160Z,13.65
2023-02-19T00:41:29.057Z,13.05
2023-02-19T00:43:57.788Z,13.27
2023-02-19T00:46:29.208Z,16.45
2023-02-19T00:48:57.247Z,12.20
2023-02-19T00:51:27.658Z,13.80
2023-02-19T00:53:55.273Z,12.05
2023-02-19T00:56:22.967Z,12.93
2023-02-19T00:58:51.007Z,13.32
2023-02-19T01:01:19.238Z,11.50
2023-02-19T01:03:47.462Z,12.38
2023-02-19T01:06:17.015Z,11.93
2023-02-19T01:08:44.387Z,11.18
2023-02-19T01:11:12.875Z,11.95
2023-02-19T01:13:40.952Z,11.60
2023-02-19T01:16:14.397Z,11.85
2023-02-19T01:18:42.397Z,11.00
2023-02-19T01:21:15.505Z,10.85
2023-02-19T01:23:43.026Z,11.98
2023-02-19T01:26:14.293Z,11.35
2023-02-19T01:28:41.655Z,10.88
2023-02-19T01:31:15.850Z,11.05
2023-02-19T01:34:04.994Z,9.35
2023-02-19T01:36:34.379Z,9.57
2023-02-19T01:39:05.091Z,11.27
2023-02-19T01:41:35.345Z,9.82
2023-02-19T01:44:07.968Z,8.82
2023-02-19T01:46:40.101Z,11.98
2023-02-19T01:49:14.866Z,10.20
2023-02-19T01:52:01.522Z,9.13
2023-02-19T01:54:36.536Z,10.65
2023-02-19T01:57:08.065Z,9.48
2023-02-19T01:59:35.688Z,9.13
2023-02-19T02:02:03.400Z,7.50
2023-02-19T02:04:32.048Z,7.85
2023-02-19T02:07:02.581Z,9.70
2023-02-19T02:09:49.810Z,8.68
2023-02-19T02:12:17.197Z,7.85
2023-02-19T02:14:47.493Z,8.90
2023-02-19T02:17:45.803Z,9.18
2023-02-19T02:20:15.877Z,8.93
2023-02-19T02:22:52.946Z,8.02
2023-02-19T02:25:39.447Z,7.95
2023-02-19T02:28:12.795Z,8.52
2023-02-19T02:30:52.357Z,8.32
2023-02-19T02:33:42.934Z,7.35
2023-02-19T02:36:21.747Z,8.02
2023-02-19T02:38:50.176Z,8.55
2023-02-19T02:41:17.538Z,7.40
2023-02-19T02:43:44.764Z,7.70
2023-02-19T02:46:17.212Z,6.63
2023-02-19T02:48:53.901Z,8.35
2023-02-19T02:51:24.208Z,9.52
2023-02-19T02:54:35.229Z,7.45
2023-02-19T02:57:02.762Z,7.25
2023-02-19T02:59:35.971Z,5.65
2023-02-19T03:02:12.014Z,9.52
2023-02-19T03:05:13.352Z,9.05
2023-02-19T03:07:54.937Z,6.72
2023-02-19T03:10:30.590Z,7.10
2023-02-19T03:13:21.319Z,6.30
2023-02-19T03:16:14.605Z,6.70
2023-02-19T03:19:04.329Z,5.70
2023-02-19T03:21:36.194Z,7.07
2023-02-19T03:24:25.438Z,7.20
2023-02-19T03:26:54.151Z,6.57
2023-02-19T03:29:27.849Z,6.80
2023-02-19T03:32:01.557Z,5.82
2023-02-19T03:34:41.089Z,4.23
2023-02-19T03:37:25.133Z,5.50
2023-02-19T03:39:53.969Z,6.72
2023-02-19T03:42:29.343Z,5.18
2023-02-19T03:45:30.709Z,6.70
2023-02-19T03:48:26.924Z,5.82
2023-02-19T03:50:59.602Z,5.85
2023-02-19T03:53:52.154Z,7.00
2023-02-19T03:56:58.668Z,6.95
2023-02-19T04:00:10.222Z,5.32
2023-02-19T04:02:51.704Z,6.80
2023-02-19T04:05:26.798Z,5.32
2023-02-19T04:07:59.010Z,8.82
2023-02-19T04:10:28.572Z,7.07
2023-02-19T04:13:06.337Z,6.20
2023-02-19T04:15:36.060Z,5.53
2023-02-19T04:18:08.453Z,5.78
2023-02-19T04:20:42.382Z,6.50
2023-02-19T04:23:10.362Z,5.00
2023-02-19T04:25:41.890Z,5.32
2023-02-19T04:28:10.156Z,5.88
2023-02-19T04:30:37.522Z,5.10
2023-02-19T04:33:04.837Z,4.72
2023-02-19T04:35:32.076Z,4.63
2023-02-19T04:37:59.284Z,5.82
2023-02-19T04:40:26.536Z,5.28
2023-02-19T04:42:53.746Z,6.40
2023-02-19T04:45:20.950Z,5.72
2023-02-19T04:47:48.174Z,5.45
2023-02-19T04:50:15.530Z,4.60
2023-02-19T04:52:42.838Z,4.80
2023-02-19T04:55:10.736Z,5.55
2023-02-19T04:57:37.987Z,4.00
2023-02-19T05:00:05.801Z,4.25
2023-02-19T05:02:33.073Z,4.18
2023-02-19T05:05:00.399Z,3.95
2023-02-19T05:07:27.700Z,4.63
2023-02-19T05:09:54.989Z,4.15
2023-02-19T05:12:22.412Z,6.13
2023-02-19T05:14:49.975Z,4.85
2023-02-19T05:17:17.194Z,4.05
2023-02-19T05:19:44.509Z,4.47
2023-02-19T05:22:11.784Z,4.85
2023-02-19T05:24:39.013Z,4.03
2023-02-19T05:27:06.324Z,5.18
2023-02-19T05:29:33.622Z,3.88
2023-02-19T05:32:00.931Z,4.32
2023-02-19T05:34:28.266Z,4.13
2023-02-19T05:36:55.481Z,3.08
2023-02-19T05:39:22.668Z,2.65
2023-02-19T05:41:49.933Z,3.38
2023-02-19T05:44:17.204Z,3.80
2023-02-19T05:46:44.568Z,4.15
2023-02-19T05:49:12.205Z,4.35
2023-02-19T05:51:39.569Z,4.15
2023-02-19T05:54:07.067Z,4.15
2023-02-19T05:56:40.075Z,3.35
2023-02-19T05:59:27.700Z,2.58
2023-02-19T06:01:55.913Z,4.10
2023-02-19T06:04:23.483Z,3.30
2023-02-19T06:06:50.886Z,3.63
2023-02-19T06:09:18.521Z,4.13
2023-02-19T06:11:45.877Z,5.30
2023-02-19T06:14:14.249Z,3.95
2023-02-19T06:16:42.214Z,3.13
2023-02-19T06:19:09.573Z,4.60
2023-02-19T06:21:36.987Z,4.47
2023-02-19T06:24:08.748Z,4.70
2023-02-19T06:26:36.376Z,4.38
2023-02-19T06:29:03.877Z,5.35
2023-02-19T06:31:31.339Z,3.30
2023-02-19T06:33:58.677Z,3.15
2023-02-19T06:36:25.968Z,3.95
2023-02-19T06:38:53.359Z,3.85
2023-02-19T06:41:20.741Z,4.28
2023-02-19T06:43:48.098Z,3.45
2023-02-19T06:46:15.467Z,3.20
2023-02-19T06:48:44.533Z,4.47
2023-02-19T06:51:27.141Z,3.42
2023-02-19T06:53:54.441Z,3.42
2023-02-19T06:56:25.355Z,4.68
2023-02-19T06:58:54.734Z,2.38
2023-02-19T07:01:23.052Z,3.95
2023-02-19T07:03:52.601Z,3.38
2023-02-19T07:06:21.723Z,3.55
2023-02-19T07:08:49.329Z,4.22
2023-02-19T07:11:18.560Z,4.22
2023-02-19T07:13:46.262Z,4.35
2023-02-19T07:16:13.813Z,5.28
2023-02-19T07:18:41.388Z,2.40
2023-02-19T07:21:14.108Z,3.13
2023-02-19T07:23:41.993Z,3.80
2023-02-19T07:26:11.284Z,2.25
2023-02-19T07:28:40.045Z,3.40
2023-02-19T07:31:07.339Z,2.42
2023-02-19T07:33:35.069Z,3.67
2023-02-19T07:36:02.505Z,3.78
2023-02-19T07:38:29.813Z,5.88
2023-02-19T07:40:59.675Z,4.38
2023-02-19T07:43:31.961Z,7.57
2023-02-19T07:46:02.197Z,6.32
2023-02-19T07:48:29.540Z,4.90
2023-02-19T07:51:00.034Z,7.80
2023-02-19T07:53:28.597Z,4.63
2023-02-19T07:56:00.996Z,5.18
2023-02-19T07:58:29.117Z,3.63
2023-02-19T08:00:56.507Z,4.95
2023-02-19T08:03:24.042Z,3.08
2023-02-19T08:05:53.729Z,8.05
2023-02-19T08:08:21.061Z,3.63
2023-02-19T08:11:06.734Z,3.80
2023-02-19T08:13:34.293Z,2.72
2023-02-19T08:16:16.983Z,3.85
2023-02-19T08:18:48.271Z,4.60
2023-02-19T08:21:18.251Z,6.28
2023-02-19T08:23:46.494Z,2.90
2023-02-19T08:26:14.470Z,4.90
2023-02-19T08:28:42.033Z,4.22
2023-02-19T08:31:11.211Z,2.78
2023-02-19T08:33:39.647Z,4.88
2023-02-19T08:36:09.388Z,2.17
2023-02-19T08:38:37.721Z,5.30
2023-02-19T08:41:10.627Z,5.70
2023-02-19T08:43:38.697Z,4.75
2023-02-19T08:46:07.084Z,2.53
2023-02-19T08:48:34.487Z,3.83
2023-02-19T08:51:04.557Z,4.95
2023-02-19T08:53:33.126Z,4.53
2023-02-19T08:56:10.156Z,4.25
2023-02-19T08:58:37.969Z,5.25
2023-02-19T09:01:10.749Z,4.45
2023-02-19T09:03:38.327Z,4.53
2023-02-19T09:06:06.142Z,5.45
2023-02-19T09:08:33.373Z,4.95
2023-02-19T09:11:06.974Z,4.00
2023-02-19T09:13:34.435Z,4.47
2023-02-19T09:16:04.609Z,5.05
2023-02-19T09:18:32.437Z,6.63
2023-02-19T09:21:04.746Z,5.85
2023-02-19T09:23:36.705Z,5.20
2023-02-19T09:26:07.008Z,5.22
2023-02-19T09:28:34.576Z,5.45
2023-02-19T09:31:07.127Z,5.97
2023-02-19T09:33:34.897Z,5.97
2023-02-19T09:36:03.084Z,5.35
2023-02-19T09:38:30.999Z,5.50
2023-02-19T09:40:59.149Z,5.00
2023-02-19T09:43:29.869Z,7.40
2023-02-19T09:46:30.780Z,7.57
2023-02-19T09:49:39.214Z,5.55
2023-02-19T09:52:15.294Z,6.53
2023-02-19T09:54:43.456Z,6.07
2023-02-19T09:57:17.068Z,6.43
2023-02-19T09:59:54.120Z,6.17
2023-02-19T10:02:25.815Z,6.20
2023-02-19T10:04:53.799Z,7.00
2023-02-19T10:07:24.952Z,7.20
2023-02-19T10:10:20.770Z,6.22
2023-02-19T10:12:53.844Z,9.95
2023-02-19T10:15:36.826Z,6.63
2023-02-19T10:18:05.877Z,6.32
2023-02-19T10:20:33.402Z,7.47
2023-02-19T10:23:10.624Z,4.60
2023-02-19T10:25:43.265Z,7.28
2023-02-19T10:28:18.378Z,6.47
2023-02-19T10:30:49.383Z,4.57
2023-02-19T10:33:17.330Z,5.50
2023-02-19T10:35:58.029Z,5.30
2023-02-19T10:38:38.524Z,6.72
2023-02-19T10:41:05.856Z,7.60
2023-02-19T10:43:37.153Z,5.93
2023-02-19T10:46:08.550Z,6.30
2023-02-19T10:48:40.835Z,7.10
2023-02-19T10:51:13.000Z,6.22
2023-02-19T10:53:45.085Z,7.57
2023-02-19T10:56:26.991Z,7.60
2023-02-19T10:58:55.170Z,7.07
2023-02-19T11:01:25.699Z,7.93
2023-02-19T11:04:14.533Z,7.03
2023-02-19T11:06:41.884Z,6.65
2023-02-19T11:09:40.410Z,8.20
2023-02-19T11:12:09.700Z,6.72
2023-02-19T11:14:37.420Z,7.60
2023-02-19T11:17:05.728Z,7.65
2023-02-19T11:19:42.715Z,7.43
2023-02-19T11:22:46.970Z,7.72
2023-02-19T11:25:14.607Z,8.25
2023-02-19T11:28:16.709Z,7.70
2023-02-19T11:30:46.491Z,6.57
2023-02-19T11:33:16.883Z,7.68
2023-02-19T11:35:44.880Z,8.30
2023-02-19T11:38:14.153Z,7.65
2023-02-19T11:40:59.713Z,6.30
2023-02-19T11:43:57.834Z,6.85
2023-02-19T11:47:26.120Z,8.23
2023-02-19T11:49:53.375Z,7.68
2023-02-19T11:52:39.635Z,7.55
2023-02-19T11:55:17.319Z,7.43
2023-02-19T11:58:07.056Z,6.50
2023-02-19T12:01:00.819Z,9.77
2023-02-19T12:03:57.524Z,7.57
2023-02-19T12:06:47.144Z,6.32
2023-02-19T12:09:35.891Z,7.95
2023-02-19T12:12:22.482Z,7.05
2023-02-19T12:14:57.660Z,7.22
2023-02-19T12:17:46.182Z,6.93
2023-02-19T12:20:40.072Z,6.82
2023-02-19T12:23:07.253Z,9.38
2023-02-19T12:25:51.588Z,6.80
2023-02-19T12:28:45.471Z,6.95
2023-02-19T12:31:51.001Z,6.50
2023-02-19T12:34:50.478Z,5.88
2023-02-19T12:37:27.397Z,5.75
2023-02-19T12:40:32.995Z,6.18
2023-02-19T12:43:15.996Z,5.75
2023-02-19T12:45:50.119Z,5.95
2023-02-19T12:48:32.329Z,5.43
2023-02-19T12:51:23.359Z,5.32
2023-02-19T12:54:24.291Z,5.20
2023-02-19T12:57:16.086Z,5.43
2023-02-19T12:59:47.184Z,5.82
2023-02-19T13:02:50.207Z,6.28
2023-02-19T13:05:38.885Z,7.57
2023-02-19T13:08:26.203Z,6.95
2023-02-19T13:11:23.218Z,5.72
2023-02-19T13:13:56.854Z,6.72
2023-02-19T13:16:25.957Z,7.05
2023-02-19T13:19:00.696Z,6.20
2023-02-19T13:24:23.404Z,6.47
2023-02-19T13:26:50.724Z,4.72
2023-02-19T13:29:43.223Z,6.40
2023-02-19T13:32:44.511Z,5.85
2023-02-19T13:35:26.964Z,4.97
2023-02-19T13:37:59.915Z,5.22
2023-02-19T13:40:27.141Z,6.43
2023-02-19T13:43:00.584Z,8.23
2023-02-19T13:45:41.467Z,7.22
2023-02-19T13:48:35.345Z,6.53
2023-02-19T13:51:23.686Z,7.68
2023-02-19T13:53:57.169Z,5.30
2023-02-19T13:56:36.416Z,6.93
2023-02-19T13:59:52.001Z,6.28
2023-02-19T14:02:22.273Z,5.93
2023-02-19T14:05:11.512Z,5.97
2023-02-19T14:07:49.383Z,5.35
2023-02-19T14:10:48.785Z,6.53
2023-02-19T14:13:51.600Z,6.68
2023-02-19T14:16:37.961Z,5.55
2023-02-19T14:19:14.768Z,6.88
2023-02-19T14:21:43.911Z,6.97
2023-02-19T14:24:16.705Z,7.15
2023-02-19T14:26:44.380Z,8.38
2023-02-19T14:29:16.500Z,8.88
2023-02-19T14:31:46.841Z,8.18
2023-02-19T14:34:27.600Z,12.32
2023-02-19T14:37:00.758Z,8.70
2023-02-19T14:39:37.912Z,8.13
2023-02-19T14:42:33.466Z,8.60
2023-02-19T14:45:06.281Z,10.02
2023-02-19T14:47:35.128Z,9.48
2023-02-19T14:50:08.977Z,10.40
2023-02-19T14:52:49.730Z,10.02
2023-02-19T14:55:38.668Z,9.40
2023-02-19T14:58:13.003Z,9.68
2023-02-19T15:00:42.232Z,8.90
2023-02-19T15:03:27.876Z,10.48
2023-02-19T15:06:08.902Z,10.98
2023-02-19T15:08:42.304Z,10.98
2023-02-19T15:11:15.338Z,9.73
2023-02-19T15:13:45.695Z,8.68
2023-02-19T15:16:23.678Z,7.65
2023-02-19T15:18:54.781Z,8.43
2023-02-19T15:21:32.437Z,8.52
2023-02-19T15:24:05.056Z,9.30
2023-02-19T15:26:37.790Z,8.43
2023-02-19T15:29:11.495Z,11.25
2023-02-19T15:31:49.780Z,7.17
2023-02-19T15:34:28.679Z,8.80
2023-02-19T15:37:02.512Z,9.20
2023-02-19T15:39:37.832Z,6.97
2023-02-19T15:42:08.296Z,6.18
2023-02-19T15:44:45.730Z,7.28
2023-02-19T15:47:29.794Z,8.68
2023-02-19T15:50:09.270Z,6.97
2023-02-19T15:52:45.687Z,6.93
2023-02-19T15:55:42.273Z,7.30
2023-02-19T15:58:12.590Z,8.05
2023-02-19T16:00:59.061Z,9.43
2023-02-19T16:03:28.151Z,9.23
2023-02-19T16:06:15.902Z,8.45
2023-02-19T16:09:02.121Z,7.03
2023-02-19T16:11:32.326Z,8.02
2023-02-19T16:14:33.433Z,6.30
2023-02-19T16:17:15.957Z,9.18
2023-02-19T16:19:58.528Z,9.15
2023-02-19T16:22:29.134Z,8.15
2023-02-19T16:25:01.435Z,9.40
2023-02-19T16:27:36.083Z,9.07
2023-02-19T16:32:32.071Z,8.32
2023-02-19T16:34:59.551Z,8.63
2023-02-19T16:37:42.288Z,6.85
2023-02-19T16:40:09.468Z,8.45
2023-02-19T16:42:49.702Z,11.10
2023-02-19T16:45:18.163Z,10.82
2023-02-19T16:47:48.406Z,8.65
2023-02-19T16:50:18.688Z,11.30
2023-02-19T16:52:57.001Z,7.22
2023-02-19T16:55:24.777Z,7.82
2023-02-19T16:57:52.132Z,7.60
2023-02-19T17:00:21.378Z,9.00
2023-02-19T17:02:50.716Z,7.25
2023-02-19T17:05:19.785Z,8.35
2023-02-19T17:07:47.299Z,10.25
2023-02-19T17:10:22.964Z,8.70
2023-02-19T17:12:54.695Z,9.30
2023-02-19T17:15:22.855Z,10.32
2023-02-19T17:17:50.139Z,7.78
2023-02-19T17:20:29.368Z,8.15
2023-02-19T17:22:57.156Z,8.40
2023-02-19T17:25:24.616Z,12.68
2023-02-19T17:27:51.904Z,9.68
2023-02-19T17:30:28.080Z,12.63
2023-02-19T17:32:55.454Z,12.50
2023-02-19T17:35:22.877Z,8.60
2023-02-19T17:37:51.897Z,7.38
2023-02-19T17:40:33.858Z,7.22
2023-02-19T17:43:01.899Z,7.00
2023-02-19T17:45:29.829Z,7.20
2023-02-19T17:47:57.169Z,6.93
2023-02-19T17:50:27.715Z,8.02
2023-02-19T17:52:55.395Z,8.63
2023-02-19T17:55:22.807Z,6.93
2023-02-19T17:57:51.555Z,7.47
2023-02-19T18:00:29.275Z,11.27
2023-02-19T18:02:56.975Z,8.00
2023-02-19T18:05:24.872Z,8.05
2023-02-19T18:07:52.904Z,7.15
2023-02-19T18:10:23.503Z,7.25
2023-02-19T18:12:51.483Z,7.15
2023-02-19T18:15:22.076Z,7.22
2023-02-19T18:17:49.508Z,7.00
2023-02-19T18:20:43.036Z,7.18
2023-02-19T18:23:10.433Z,8.07
2023-02-19T18:25:37.760Z,16.15
2023-02-19T18:28:05.255Z,17.58
2023-02-19T18:30:32.588Z,23.75
2023-02-19T18:33:00.015Z,27.90
2023-02-19T18:35:27.299Z,29.95
2023-02-19T18:37:55.862Z,20.63
2023-02-19T18:40:27.224Z,25.50
2023-02-19T18:42:54.635Z,24.20
2023-02-19T18:45:21.976Z,21.42
2023-02-19T18:47:49.965Z,21.42
2023-02-19T18:50:18.531Z,33.25
2023-02-19T18:52:45.880Z,25.08
2023-02-19T18:55:13.366Z,30.50
2023-02-19T18:57:40.765Z,20.83
2023-02-19T19:00:08.847Z,25.95
2023-02-19T19:02:48.451Z,22.52
2023-02-19T19:05:21.287Z,25.77
2023-02-19T19:07:49.592Z,19.45
2023-02-19T19:10:17.362Z,30.00
2023-02-19T19:12:44.665Z,28.27
2023-02-19T19:15:12.028Z,29.00
2023-02-19T19:17:40.487Z,24.17
2023-02-19T19:20:09.017Z,24.48
2023-02-19T19:22:36.637Z,27.77
2023-02-19T19:25:04.184Z,19.00
2023-02-19T19:27:31.461Z,22.05
2023-02-19T19:29:58.804Z,20.15
2023-02-19T19:32:26.087Z,20.73
2023-02-19T19:34:53.396Z,23.17
2023-02-19T19:37:20.676Z,14.43
2023-02-19T19:39:47.958Z,17.73
2023-02-19T19:42:15.316Z,18.58
2023-02-19T19:44:45.107Z,12.05
2023-02-19T19:47:12.587Z,15.90
2023-02-19T19:49:41.063Z,17.20
2023-02-19T19:52:08.973Z,13.25
2023-02-19T19:54:36.272Z,17.38
2023-02-19T19:57:03.618Z,18.92
2023-02-19T19:59:30.988Z,18.25
2023-02-19T20:01:58.349Z,11.07
2023-02-19T20:04:26.380Z,20.15
2023-02-19T20:06:54.432Z,19.00
2023-02-19T20:09:25.484Z,16.40
2023-02-19T20:11:53.914Z,15.90
2023-02-19T20:14:23.042Z,10.13
2023-02-19T20:16:50.676Z,15.73
2023-02-19T20:19:20.444Z,17.90
2023-02-19T20:21:49.949Z,15.65
2023-02-19T20:24:30.995Z,14.95
2023-02-19T20:27:00.340Z,16.85
2023-02-19T20:29:29.392Z,18.75
2023-02-19T20:32:00.587Z,12.00
2023-02-19T20:34:27.956Z,15.82
2023-02-19T20:36:55.631Z,14.60
2023-02-19T20:39:28.660Z,15.90
2023-02-19T20:41:56.747Z,15.27
2023-02-19T20:44:24.418Z,17.55
2023-02-19T20:46:53.529Z,15.52
2023-02-19T20:49:23.912Z,18.63
2023-02-19T20:51:58.097Z,16.42
2023-02-19T20:54:28.282Z,18.63
2023-02-19T20:56:58.365Z,17.92
2023-02-19T20:59:30.708Z,16.90
2023-02-19T21:02:05.449Z,16.77
2023-02-19T21:07:00.240Z,14.40
2023-02-19T21:09:27.619Z,18.42
2023-02-19T21:11:54.959Z,15.57
2023-02-19T21:14:22.296Z,13.90
2023-02-19T21:16:49.946Z,15.52
2023-02-19T21:19:17.156Z,12.57
2023-02-19T21:21:44.458Z,12.93
2023-02-19T21:24:13.905Z,14.20
2023-02-19T21:26:42.827Z,11.52
2023-02-19T21:29:14.695Z,14.35
2023-02-19T21:31:47.468Z,14.00
2023-02-19T21:34:17.710Z,12.93
2023-02-19T21:36:45.295Z,10.43
2023-02-19T21:39:15.498Z,13.43
2023-02-19T21:41:42.800Z,15.07
2023-02-19T21:44:10.404Z,14.00
2023-02-19T21:46:37.948Z,12.30
2023-02-19T21:49:06.657Z,12.10
2023-02-19T21:51:40.034Z,11.07
2023-02-19T21:54:08.514Z,11.70
2023-02-19T21:56:37.084Z,8.63
2023-02-19T21:59:04.813Z,9.52
2023-02-19T22:01:34.905Z,10.10
2023-02-19T22:04:02.601Z,11.55
2023-02-19T22:06:31.039Z,9.80
2023-02-19T22:08:59.224Z,9.70
2023-02-19T22:11:26.692Z,10.73
2023-02-19T22:13:54.057Z,9.32
2023-02-19T22:16:21.464Z,13.68
2023-02-19T22:18:54.149Z,8.70
2023-02-19T22:21:23.047Z,8.30
2023-02-19T22:23:51.995Z,6.88
2023-02-19T22:26:24.437Z,8.35
2023-02-19T22:28:52.459Z,9.27
2023-02-19T22:31:22.588Z,9.80
2023-02-19T22:33:50.314Z,7.57
2023-02-19T22:36:21.224Z,8.68
2023-02-19T22:38:48.844Z,8.40
2023-02-19T22:41:17.665Z,7.57
2023-02-19T22:43:45.579Z,8.52
2023-02-19T22:46:17.629Z,6.53
2023-02-19T22:48:45.021Z,6.20
2023-02-19T22:51:14.240Z,8.95
2023-02-19T22:53:50.133Z,6.72
2023-02-19T22:56:18.917Z,7.25
2023-02-19T22:58:46.628Z,7.03
2023-02-19T23:01:15.358Z,6.88
2023-02-19T23:03:58.050Z,8.45
2023-02-19T23:06:31.689Z,8.25
2023-02-19T23:09:02.928Z,8.13
2023-02-19T23:11:33.092Z,6.15
2023-02-19T23:14:00.623Z,7.30
2023-02-19T23:16:28.431Z,6.38
2023-02-19T23:18:56.158Z,7.93
2023-02-19T23:21:24.215Z,6.85
2023-02-19T23:23:51.544Z,7.97
2023-02-19T23:26:19.379Z,6.97
2023-02-19T23:28:47.006Z,6.95
2023-02-19T23:31:15.223Z,5.40
2023-02-19T23:33:42.708Z,5.97
2023-02-19T23:36:10.733Z,8.25
2023-02-19T23:38:38.342Z,5.20
2023-02-19T23:41:10.718Z,6.05
2023-02-19T23:43:38.419Z,5.10
2023-02-19T23:46:06.198Z,5.25
2023-02-19T23:48:33.845Z,4.85
2023-02-19T23:51:01.177Z,6.20
2023-02-19T23:53:28.456Z,4.88
2023-02-19T23:55:56.068Z,5.78
2023-02-19T23:58:23.302Z,4.60
